sensor_id;sensor_type;location;lat;lon;timestamp;pressure;altitude;pressure_sealevel;temperature;humidity
24825;BME280;12910;57.690;11.974;2023-01-05T00:01:24;98592.84;;;3.01;100.00
24825;BME280;12910;57.690;11.974;2023-01-05T00:03:50;98592.00;;;3.02;100.00
24825;BME280;12910;57.690;11.974;2023-01-05T00:06:16;98596.22;;;3.03;100.00
24825;BME280;12910;57.690;11.974;2023-01-05T00:08:45;98591.97;;;3.01;100.00
24825;BME280;12910;57.690;11.974;2023-01-05T00:11:19;98597.03;;;3.01;100.00
24825;BME280;12910;57.690;11.974;2023-01-05T00:14:03;98590.25;;;2.98;100.00
24825;BME280;12910;57.690;11.974;2023-01-05T00:16:48;98594.50;;;2.99;100.00
24825;BME280;12910;57.690;11.974;2023-01-05T00:19:32;98596.22;;;3.02;100.00
24825;BME280;12910;57.690;11.974;2023-01-05T00:22:19;98604.59;;;2.98;100.00
24825;BME280;12910;57.690;11.974;2023-01-05T00:27:23;98608.66;;;2.86;100.00
24825;BME280;12910;57.690;11.974;2023-01-05T00:29:48;98604.50;;;2.90;100.00
24825;BME280;12910;57.690;11.974;2023-01-05T00:32:13;98607.06;;;2.93;100.00
24825;BME280;12910;57.690;11.974;2023-01-05T00:34:39;98615.50;;;2.93;100.00
24825;BME280;12910;57.690;11.974;2023-01-05T00:37:04;98622.19;;;2.88;100.00
24825;BME280;12910;57.690;11.974;2023-01-05T00:39:30;98622.94;;;2.83;100.00
24825;BME280;12910;57.690;11.974;2023-01-05T00:41:55;98621.25;;;2.82;100.00
24825;BME280;12910;57.690;11.974;2023-01-05T00:44:21;98615.97;;;2.68;100.00
24825;BME280;12910;57.690;11.974;2023-01-05T00:46:46;98625.28;;;2.72;100.00
24825;BME280;12910;57.690;11.974;2023-01-05T00:49:11;98636.31;;;2.75;100.00
24825;BME280;12910;57.690;11.974;2023-01-05T00:51:37;98642.25;;;2.79;100.00
24825;BME280;12910;57.690;11.974;2023-01-05T00:54:02;98634.66;;;2.77;100.00
24825;BME280;12910;57.690;11.974;2023-01-05T00:56:28;98639.69;;;2.76;100.00
24825;BME280;12910;57.690;11.974;2023-01-05T00:58:53;98646.41;;;2.72;100.00
24825;BME280;12910;57.690;11.974;2023-01-05T01:01:19;98644.63;;;2.68;100.00
24825;BME280;12910;57.690;11.974;2023-01-05T01:03:45;98647.97;;;2.64;100.00
24825;BME280;12910;57.690;11.974;2023-01-05T01:06:11;98652.22;;;2.68;100.00
24825;BME280;12910;57.690;11.974;2023-01-05T01:08:37;98649.63;;;2.65;100.00
24825;BME280;12910;57.690;11.974;2023-01-05T01:11:07;98656.44;;;2.68;100.00
24825;BME280;12910;57.690;11.974;2023-01-05T01:13:33;98666.50;;;2.66;100.00
24825;BME280;12910;57.690;11.974;2023-01-05T01:16:05;98672.47;;;2.70;100.00
24825;BME280;12910;57.690;11.974;2023-01-05T01:18:31;98680.09;;;2.71;100.00
24825;BME280;12910;57.690;11.974;2023-01-05T01:20:56;98669.84;;;2.62;100.00
24825;BME280;12910;57.690;11.974;2023-01-05T01:23:24;98680.78;;;2.61;100.00
24825;BME280;12910;57.690;11.974;2023-01-05T01:25:49;98687.41;;;2.54;100.00
24825;BME280;12910;57.690;11.974;2023-01-05T01:28:15;98685.75;;;2.56;100.00
24825;BME280;12910;57.690;11.974;2023-01-05T01:30:40;98694.91;;;2.49;100.00
24825;BME280;12910;57.690;11.974;2023-01-05T01:33:05;98685.53;;;2.45;100.00
24825;BME280;12910;57.690;11.974;2023-01-05T01:35:31;98690.66;;;2.48;100.00
24825;BME280;12910;57.690;11.974;2023-01-05T01:37:56;98689.84;;;2.51;100.00
24825;BME280;12910;57.690;11.974;2023-01-05T01:40:21;98707.53;;;2.49;100.00
24825;BME280;12910;57.690;11.974;2023-01-05T01:42:47;98709.25;;;2.51;100.00
24825;BME280;12910;57.690;11.974;2023-01-05T01:45:21;98720.94;;;2.45;100.00
24825;BME280;12910;57.690;11.974;2023-01-05T01:47:59;98715.78;;;2.39;100.00
24825;BME280;12910;57.690;11.974;2023-01-05T01:50:35;98725.06;;;2.39;100.00
24825;BME280;12910;57.690;11.974;2023-01-05T01:53:11;98728.34;;;2.36;100.00
24825;BME280;12910;57.690;11.974;2023-01-05T01:55:39;98743.53;;;2.36;100.00
24825;BME280;12910;57.690;11.974;2023-01-05T01:58:08;98755.31;;;2.34;100.00
24825;BME280;12910;57.690;11.974;2023-01-05T02:00:38;98756.97;;;2.33;100.00
24825;BME280;12910;57.690;11.974;2023-01-05T02:03:05;98763.56;;;2.25;100.00
24825;BME280;12910;57.690;11.974;2023-01-05T02:05:31;98760.00;;;2.15;100.00
24825;BME280;12910;57.690;11.974;2023-01-05T02:07:58;98769.41;;;2.23;100.00
24825;BME280;12910;57.690;11.974;2023-01-05T02:16:23;98796.22;;;2.14;100.00
24825;BME280;12910;57.690;11.974;2023-01-05T02:29:30;98820.47;;;2.06;100.00
24825;BME280;12910;57.690;11.974;2023-01-05T02:32:12;98832.31;;;2.09;100.00
24825;BME280;12910;57.690;11.974;2023-01-05T02:37:36;98838.09;;;2.05;100.00
24825;BME280;12910;57.690;11.974;2023-01-05T02:40:16;98842.31;;;2.04;100.00
24825;BME280;12910;57.690;11.974;2023-01-05T02:42:46;98846.56;;;2.07;100.00
24825;BME280;12910;57.690;11.974;2023-01-05T02:45:14;98865.78;;;1.98;100.00
24825;BME280;12910;57.690;11.974;2023-01-05T02:47:42;98882.75;;;2.04;100.00
24825;BME280;12910;57.690;11.974;2023-01-05T02:50:27;98893.59;;;2.00;100.00
24825;BME280;12910;57.690;11.974;2023-01-05T02:53:05;98906.19;;;1.97;100.00
24825;BME280;12910;57.690;11.974;2023-01-05T02:55:44;98928.84;;;1.95;100.00
24825;BME280;12910;57.690;11.974;2023-01-05T02:58:18;98934.63;;;1.90;100.00
24825;BME280;12910;57.690;11.974;2023-01-05T03:01:52;98932.09;;;1.90;100.00
24825;BME280;12910;57.690;11.974;2023-01-05T03:04:36;98943.09;;;1.92;100.00
24825;BME280;12910;57.690;11.974;2023-01-05T03:07:06;98960.81;;;1.93;100.00
24825;BME280;12910;57.690;11.974;2023-01-05T03:09:35;98966.59;;;1.88;100.00
24825;BME280;12910;57.690;11.974;2023-01-05T03:15:26;98995.13;;;1.85;100.00
24825;BME280;12910;57.690;11.974;2023-01-05T03:18:18;98998.66;;;1.92;100.00
24825;BME280;12910;57.690;11.974;2023-01-05T03:20:47;99007.06;;;1.91;100.00
24825;BME280;12910;57.690;11.974;2023-01-05T03:23:18;99001.06;;;1.85;100.00
24825;BME280;12910;57.690;11.974;2023-01-05T03:26:06;99000.16;;;1.83;100.00
24825;BME280;12910;57.690;11.974;2023-01-05T03:29:01;99008.66;;;1.87;100.00
24825;BME280;12910;57.690;11.974;2023-01-05T03:32:06;99024.59;;;1.84;100.00
24825;BME280;12910;57.690;11.974;2023-01-05T03:35:03;99035.50;;;1.82;100.00
24825;BME280;12910;57.690;11.974;2023-01-05T03:37:56;99044.72;;;1.81;100.00
24825;BME280;12910;57.690;11.974;2023-01-05T03:40:28;99046.22;;;1.75;100.00
24825;BME280;12910;57.690;11.974;2023-01-05T03:42:55;99047.13;;;1.77;100.00
24825;BME280;12910;57.690;11.974;2023-01-05T03:45:23;99061.22;;;1.68;100.00
24825;BME280;12910;57.690;11.974;2023-01-05T03:47:51;99065.59;;;1.74;100.00
24825;BME280;12910;57.690;11.974;2023-01-05T03:50:16;99073.72;;;1.64;100.00
24825;BME280;12910;57.690;11.974;2023-01-05T03:52:42;99091.38;;;1.62;100.00
24825;BME280;12910;57.690;11.974;2023-01-05T03:55:07;99104.13;;;1.67;100.00
24825;BME280;12910;57.690;11.974;2023-01-05T03:57:33;99115.94;;;1.68;100.00
24825;BME280;12910;57.690;11.974;2023-01-05T03:59:59;99112.44;;;1.64;100.00
24825;BME280;12910;57.690;11.974;2023-01-05T04:02:24;99109.09;;;1.64;100.00
24825;BME280;12910;57.690;11.974;2023-01-05T04:04:49;99111.50;;;1.61;100.00
24825;BME280;12910;57.690;11.974;2023-01-05T04:07:15;99096.50;;;1.65;100.00
24825;BME280;12910;57.690;11.974;2023-01-05T04:09:41;99113.34;;;1.66;100.00
24825;BME280;12910;57.690;11.974;2023-01-05T04:12:06;99123.41;;;1.63;100.00
24825;BME280;12910;57.690;11.974;2023-01-05T04:14:35;99132.63;;;1.63;100.00
24825;BME280;12910;57.690;11.974;2023-01-05T04:17:00;99140.97;;;1.60;100.00
24825;BME280;12910;57.690;11.974;2023-01-05T04:19:26;99152.66;;;1.57;100.00
24825;BME280;12910;57.690;11.974;2023-01-05T04:21:51;99161.75;;;1.51;100.00
24825;BME280;12910;57.690;11.974;2023-01-05T04:24:17;99168.63;;;1.55;100.00
24825;BME280;12910;57.690;11.974;2023-01-05T04:26:42;99174.50;;;1.56;100.00
24825;BME280;12910;57.690;11.974;2023-01-05T04:29:11;99172.84;;;1.57;100.00
24825;BME280;12910;57.690;11.974;2023-01-05T04:31:36;99180.19;;;1.49;100.00
24825;BME280;12910;57.690;11.974;2023-01-05T04:34:01;99190.41;;;1.52;100.00
24825;BME280;12910;57.690;11.974;2023-01-05T04:36:27;99185.47;;;1.57;100.00
24825;BME280;12910;57.690;11.974;2023-01-05T04:38:52;99204.78;;;1.54;100.00
24825;BME280;12910;57.690;11.974;2023-01-05T04:41:18;99212.25;;;1.51;100.00
24825;BME280;12910;57.690;11.974;2023-01-05T04:43:47;99234.97;;;1.51;100.00
24825;BME280;12910;57.690;11.974;2023-01-05T04:46:12;99245.84;;;1.49;100.00
24825;BME280;12910;57.690;11.974;2023-01-05T04:48:37;99243.28;;;1.47;100.00
24825;BME280;12910;57.690;11.974;2023-01-05T04:51:03;99245.75;;;1.46;100.00
24825;BME280;12910;57.690;11.974;2023-01-05T04:53:28;99252.44;;;1.44;100.00
24825;BME280;12910;57.690;11.974;2023-01-05T04:55:53;99267.50;;;1.42;100.00
24825;BME280;12910;57.690;11.974;2023-01-05T04:58:19;99265.75;;;1.39;100.00
24825;BME280;12910;57.690;11.974;2023-01-05T05:00:44;99284.28;;;1.40;100.00
24825;BME280;12910;57.690;11.974;2023-01-05T05:03:11;99280.78;;;1.36;100.00
24825;BME280;12910;57.690;11.974;2023-01-05T05:05:36;99300.25;;;1.39;100.00
24825;BME280;12910;57.690;11.974;2023-01-05T05:08:01;99311.22;;;1.41;100.00
24825;BME280;12910;57.690;11.974;2023-01-05T05:10:27;99315.41;;;1.39;100.00
24825;BME280;12910;57.690;11.974;2023-01-05T05:12:53;99333.00;;;1.37;100.00
24825;BME280;12910;57.690;11.974;2023-01-05T05:15:19;99344.72;;;1.35;100.00
24825;BME280;12910;57.690;11.974;2023-01-05T05:17:44;99359.00;;;1.35;100.00
24825;BME280;12910;57.690;11.974;2023-01-05T05:20:09;99361.66;;;1.38;100.00
24825;BME280;12910;57.690;11.974;2023-01-05T05:22:35;99379.31;;;1.38;100.00
24825;BME280;12910;57.690;11.974;2023-01-05T05:25:00;99362.91;;;1.25;100.00
24825;BME280;12910;57.690;11.974;2023-01-05T05:27:26;99389.09;;;1.29;100.00
24825;BME280;12910;57.690;11.974;2023-01-05T05:29:53;99400.19;;;1.34;100.00
24825;BME280;12910;57.690;11.974;2023-01-05T05:32:18;99418.66;;;1.33;100.00
24825;BME280;12910;57.690;11.974;2023-01-05T05:34:44;99423.72;;;1.33;100.00
24825;BME280;12910;57.690;11.974;2023-01-05T05:37:09;99436.47;;;1.36;100.00
24825;BME280;12910;57.690;11.974;2023-01-05T05:39:34;99441.63;;;1.39;100.00
24825;BME280;12910;57.690;11.974;2023-01-05T05:42:00;99444.84;;;1.35;100.00
24825;BME280;12910;57.690;11.974;2023-01-05T05:44:45;99448.81;;;1.28;100.00
24825;BME280;12910;57.690;11.974;2023-01-05T05:47:10;99449.56;;;1.26;100.00
24825;BME280;12910;57.690;11.974;2023-01-05T05:49:36;99452.88;;;1.24;100.00
24825;BME280;12910;57.690;11.974;2023-01-05T05:52:01;99460.41;;;1.23;100.00
24825;BME280;12910;57.690;11.974;2023-01-05T05:54:26;99461.16;;;1.20;100.00
24825;BME280;12910;57.690;11.974;2023-01-05T05:56:56;99469.75;;;1.26;100.00
24825;BME280;12910;57.690;11.974;2023-01-05T05:59:21;99485.75;;;1.26;100.00
24825;BME280;12910;57.690;11.974;2023-01-05T06:01:46;99493.16;;;1.21;100.00
24825;BME280;12910;57.690;11.974;2023-01-05T06:04:12;99513.34;;;1.21;100.00
24825;BME280;12910;57.690;11.974;2023-01-05T06:06:38;99527.66;;;1.21;100.00
24825;BME280;12910;57.690;11.974;2023-01-05T06:09:04;99527.75;;;1.24;100.00
24825;BME280;12910;57.690;11.974;2023-01-05T06:11:30;99545.13;;;1.16;100.00
24825;BME280;12910;57.690;11.974;2023-01-05T06:13:55;99552.88;;;1.21;100.00
24825;BME280;12910;57.690;11.974;2023-01-05T06:16:21;99562.97;;;1.21;100.00
24825;BME280;12910;57.690;11.974;2023-01-05T06:18:47;99556.84;;;1.14;100.00
24825;BME280;12910;57.690;11.974;2023-01-05T06:21:12;99565.00;;;1.07;100.00
24825;BME280;12910;57.690;11.974;2023-01-05T06:23:37;99574.13;;;1.03;100.00
24825;BME280;12910;57.690;11.974;2023-01-05T06:26:03;99577.25;;;0.98;100.00
24825;BME280;12910;57.690;11.974;2023-01-05T06:28:29;99572.88;;;0.93;100.00
24825;BME280;12910;57.690;11.974;2023-01-05T06:30:55;99588.03;;;0.93;100.00
24825;BME280;12910;57.690;11.974;2023-01-05T06:33:21;99598.25;;;0.97;100.00
24825;BME280;12910;57.690;11.974;2023-01-05T06:35:46;99610.19;;;1.01;100.00
24825;BME280;12910;57.690;11.974;2023-01-05T06:38:12;99613.25;;;0.93;100.00
24825;BME280;12910;57.690;11.974;2023-01-05T06:40:38;99621.75;;;0.96;100.00
24825;BME280;12910;57.690;11.974;2023-01-05T06:43:04;99632.63;;;0.95;100.00
24825;BME280;12910;57.690;11.974;2023-01-05T06:45:30;99651.09;;;0.93;100.00
24825;BME280;12910;57.690;11.974;2023-01-05T06:47:55;99663.97;;;1.00;100.00
24825;BME280;12910;57.690;11.974;2023-01-05T06:50:23;99679.28;;;1.04;100.00
24825;BME280;12910;57.690;11.974;2023-01-05T06:52:48;99686.78;;;1.03;100.00
24825;BME280;12910;57.690;11.974;2023-01-05T06:55:14;99693.19;;;0.95;100.00
24825;BME280;12910;57.690;11.974;2023-01-05T06:57:39;99703.59;;;1.02;100.00
24825;BME280;12910;57.690;11.974;2023-01-05T07:00:07;99704.06;;;0.93;100.00
24825;BME280;12910;57.690;11.974;2023-01-05T07:02:33;99712.34;;;0.89;100.00
24825;BME280;12910;57.690;11.974;2023-01-05T07:04:58;99721.91;;;0.98;100.00
24825;BME280;12910;57.690;11.974;2023-01-05T07:07:24;99733.81;;;1.01;100.00
24825;BME280;12910;57.690;11.974;2023-01-05T07:09:49;99754.66;;;0.97;100.00
24825;BME280;12910;57.690;11.974;2023-01-05T07:12:16;99758.97;;;0.99;100.00
24825;BME280;12910;57.690;11.974;2023-01-05T07:14:41;99765.53;;;0.96;100.00
24825;BME280;12910;57.690;11.974;2023-01-05T07:17:07;99768.06;;;0.96;100.00
24825;BME280;12910;57.690;11.974;2023-01-05T07:19:32;99777.31;;;0.95;100.00
24825;BME280;12910;57.690;11.974;2023-01-05T07:21:58;99784.78;;;0.93;100.00
24825;BME280;12910;57.690;11.974;2023-01-05T07:24:25;99796.75;;;0.98;100.00
24825;BME280;12910;57.690;11.974;2023-01-05T07:26:50;99804.75;;;0.87;100.00
24825;BME280;12910;57.690;11.974;2023-01-05T07:29:16;99810.03;;;0.93;100.00
24825;BME280;12910;57.690;11.974;2023-01-05T07:31:42;99815.75;;;0.89;100.00
24825;BME280;12910;57.690;11.974;2023-01-05T07:34:08;99810.63;;;0.88;100.00
24825;BME280;12910;57.690;11.974;2023-01-05T07:36:33;99809.78;;;0.87;100.00
24825;BME280;12910;57.690;11.974;2023-01-05T07:38:59;99823.34;;;0.89;100.00
24825;BME280;12910;57.690;11.974;2023-01-05T07:41:24;99843.38;;;0.86;100.00
24825;BME280;12910;57.690;11.974;2023-01-05T07:43:49;99851.78;;;0.87;100.00
24825;BME280;12910;57.690;11.974;2023-01-05T07:46:15;99851.34;;;0.76;100.00
24825;BME280;12910;57.690;11.974;2023-01-05T07:48:41;99869.44;;;0.87;100.00
24825;BME280;12910;57.690;11.974;2023-01-05T07:51:08;99881.16;;;0.85;100.00
24825;BME280;12910;57.690;11.974;2023-01-05T07:53:35;99896.19;;;0.83;100.00
24825;BME280;12910;57.690;11.974;2023-01-05T07:56:04;99905.84;;;0.72;100.00
24825;BME280;12910;57.690;11.974;2023-01-05T07:58:30;99913.59;;;0.77;100.00
24825;BME280;12910;57.690;11.974;2023-01-05T08:00:56;99931.41;;;0.80;100.00
24825;BME280;12910;57.690;11.974;2023-01-05T08:03:23;99943.00;;;0.76;100.00
24825;BME280;12910;57.690;11.974;2023-01-05T08:05:49;99942.50;;;0.66;100.00
24825;BME280;12910;57.690;11.974;2023-01-05T08:08:14;99954.53;;;0.71;100.00
24825;BME280;12910;57.690;11.974;2023-01-05T08:10:41;99958.44;;;0.65;100.00
24825;BME280;12910;57.690;11.974;2023-01-05T08:13:09;99963.63;;;0.68;100.00
24825;BME280;12910;57.690;11.974;2023-01-05T08:15:55;99969.47;;;0.67;100.00
24825;BME280;12910;57.690;11.974;2023-01-05T08:18:22;99969.84;;;0.56;100.00
24825;BME280;12910;57.690;11.974;2023-01-05T08:21:09;99979.41;;;0.64;100.00
24825;BME280;12910;57.690;11.974;2023-01-05T08:23:38;99980.94;;;0.60;100.00
24825;BME280;12910;57.690;11.974;2023-01-05T08:26:07;99984.38;;;0.62;100.00
24825;BME280;12910;57.690;11.974;2023-01-05T08:28:35;100000.25;;;0.59;100.00
24825;BME280;12910;57.690;11.974;2023-01-05T08:31:06;99999.94;;;0.53;100.00
24825;BME280;12910;57.690;11.974;2023-01-05T08:33:32;99998.31;;;0.54;100.00
24825;BME280;12910;57.690;11.974;2023-01-05T08:35:58;100014.38;;;0.56;100.00
24825;BME280;12910;57.690;11.974;2023-01-05T08:38:27;100017.53;;;0.52;100.00
24825;BME280;12910;57.690;11.974;2023-01-05T08:40:52;100029.19;;;0.50;100.00
24825;BME280;12910;57.690;11.974;2023-01-05T08:43:18;100030.06;;;0.50;100.00
24825;BME280;12910;57.690;11.974;2023-01-05T08:45:47;100034.19;;;0.48;100.00
24825;BME280;12910;57.690;11.974;2023-01-05T08:48:13;100035.13;;;0.50;100.00
24825;BME280;12910;57.690;11.974;2023-01-05T08:50:39;100036.97;;;0.54;100.00
24825;BME280;12910;57.690;11.974;2023-01-05T08:53:04;100040.50;;;0.58;100.00
24825;BME280;12910;57.690;11.974;2023-01-05T08:55:30;100043.41;;;0.48;100.00
24825;BME280;12910;57.690;11.974;2023-01-05T08:57:55;100059.31;;;0.46;100.00
24825;BME280;12910;57.690;11.974;2023-01-05T09:00:21;100072.16;;;0.51;100.00
24825;BME280;12910;57.690;11.974;2023-01-05T09:02:47;100078.19;;;0.55;100.00
24825;BME280;12910;57.690;11.974;2023-01-05T09:05:12;100086.03;;;0.61;100.00
24825;BME280;12910;57.690;11.974;2023-01-05T09:07:38;100094.91;;;0.53;100.00
24825;BME280;12910;57.690;11.974;2023-01-05T09:10:05;100111.91;;;0.57;100.00
24825;BME280;12910;57.690;11.974;2023-01-05T09:12:33;100115.56;;;0.45;100.00
24825;BME280;12910;57.690;11.974;2023-01-05T09:14:59;100125.88;;;0.50;100.00
24825;BME280;12910;57.690;11.974;2023-01-05T09:17:25;100123.88;;;0.43;100.00
24825;BME280;12910;57.690;11.974;2023-01-05T09:19:50;100139.13;;;0.46;100.00
24825;BME280;12910;57.690;11.974;2023-01-05T09:22:16;100138.25;;;0.45;100.00
24825;BME280;12910;57.690;11.974;2023-01-05T09:24:45;100148.84;;;0.38;100.00
24825;BME280;12910;57.690;11.974;2023-01-05T09:27:11;100159.94;;;0.42;100.00
24825;BME280;12910;57.690;11.974;2023-01-05T09:29:36;100162.47;;;0.42;100.00
24825;BME280;12910;57.690;11.974;2023-01-05T09:32:02;100169.38;;;0.46;100.00
24825;BME280;12910;57.690;11.974;2023-01-05T09:34:27;100180.19;;;0.43;100.00
24825;BME280;12910;57.690;11.974;2023-01-05T09:36:53;100189.53;;;0.46;100.00
24825;BME280;12910;57.690;11.974;2023-01-05T09:39:18;100178.44;;;0.42;100.00
24825;BME280;12910;57.690;11.974;2023-01-05T09:41:55;100188.75;;;0.47;100.00
24825;BME280;12910;57.690;11.974;2023-01-05T09:44:43;100197.44;;;0.52;100.00
24825;BME280;12910;57.690;11.974;2023-01-05T09:49:38;100214.13;;;0.50;100.00
24825;BME280;12910;57.690;11.974;2023-01-05T09:52:08;100224.28;;;0.52;100.00
24825;BME280;12910;57.690;11.974;2023-01-05T09:54:37;100231.63;;;0.47;100.00
24825;BME280;12910;57.690;11.974;2023-01-05T09:57:04;100235.81;;;0.46;100.00
24825;BME280;12910;57.690;11.974;2023-01-05T09:59:35;100235.09;;;0.49;100.00
24825;BME280;12910;57.690;11.974;2023-01-05T10:02:39;100244.69;;;0.56;100.00
24825;BME280;12910;57.690;11.974;2023-01-05T10:05:11;100264.31;;;0.45;100.00
24825;BME280;12910;57.690;11.974;2023-01-05T10:07:48;100264.09;;;0.41;100.00
24825;BME280;12910;57.690;11.974;2023-01-05T10:13:22;100274.72;;;0.52;100.00
24825;BME280;12910;57.690;11.974;2023-01-05T10:15:52;100280.63;;;0.52;100.00
24825;BME280;12910;57.690;11.974;2023-01-05T10:18:26;100291.66;;;0.54;100.00
24825;BME280;12910;57.690;11.974;2023-01-05T10:29:24;100321.91;;;0.54;100.00
24825;BME280;12910;57.690;11.974;2023-01-05T10:32:21;100326.09;;;0.54;100.00
24825;BME280;12910;57.690;11.974;2023-01-05T10:46:02;100367.06;;;0.50;100.00
24825;BME280;12910;57.690;11.974;2023-01-05T10:48:32;100368.66;;;0.48;100.00
24825;BME280;12910;57.690;11.974;2023-01-05T10:50:59;100381.94;;;0.45;100.00
24825;BME280;12910;57.690;11.974;2023-01-05T10:53:26;100383.22;;;0.53;100.00
24825;BME280;12910;57.690;11.974;2023-01-05T10:58:23;100387.63;;;0.57;100.00
24825;BME280;12910;57.690;11.974;2023-01-05T11:00:50;100398.69;;;0.59;100.00
24825;BME280;12910;57.690;11.974;2023-01-05T11:03:18;100405.28;;;0.57;100.00
24825;BME280;12910;57.690;11.974;2023-01-05T11:05:48;100402.78;;;0.57;100.00
24825;BME280;12910;57.690;11.974;2023-01-05T11:08:15;100411.91;;;0.55;100.00
24825;BME280;12910;57.690;11.974;2023-01-05T11:13:28;100406.16;;;0.58;100.00
24825;BME280;12910;57.690;11.974;2023-01-05T11:15:56;100423.00;;;0.59;100.00
24825;BME280;12910;57.690;11.974;2023-01-05T11:18:29;100415.75;;;0.49;100.00
24825;BME280;12910;57.690;11.974;2023-01-05T11:23:56;100430.19;;;0.51;100.00
24825;BME280;12910;57.690;11.974;2023-01-05T11:31:21;100442.81;;;0.51;100.00
24825;BME280;12910;57.690;11.974;2023-01-05T11:33:47;100446.41;;;0.56;100.00
24825;BME280;12910;57.690;11.974;2023-01-05T11:36:19;100440.28;;;0.51;100.00
24825;BME280;12910;57.690;11.974;2023-01-05T11:38:50;100439.94;;;0.45;100.00
24825;BME280;12910;57.690;11.974;2023-01-05T11:41:20;100467.78;;;0.46;100.00
24825;BME280;12910;57.690;11.974;2023-01-05T11:43:46;100460.88;;;0.44;100.00
24825;BME280;12910;57.690;11.974;2023-01-05T11:46:13;100470.38;;;0.48;100.00
24825;BME280;12910;57.690;11.974;2023-01-05T11:48:52;100469.50;;;0.48;100.00
24825;BME280;12910;57.690;11.974;2023-01-05T11:51:35;100476.44;;;0.52;100.00
24825;BME280;12910;57.690;11.974;2023-01-05T11:54:00;100478.19;;;0.53;100.00
24825;BME280;12910;57.690;11.974;2023-01-05T11:56:26;100489.94;;;0.52;100.00
24825;BME280;12910;57.690;11.974;2023-01-05T11:58:53;100493.13;;;0.50;100.00
24825;BME280;12910;57.690;11.974;2023-01-05T12:09:33;100527.41;;;0.46;100.00
24825;BME280;12910;57.690;11.974;2023-01-05T12:15:15;100534.19;;;0.32;100.00
24825;BME280;12910;57.690;11.974;2023-01-05T12:23:48;100556.69;;;0.44;100.00
24825;BME280;12910;57.690;11.974;2023-01-05T12:26:27;100556.34;;;0.38;100.00
24825;BME280;12910;57.690;11.974;2023-01-05T12:29:34;100559.06;;;0.41;100.00
24825;BME280;12910;57.690;11.974;2023-01-05T12:35:22;100569.03;;;0.39;100.00
24825;BME280;12910;57.690;11.974;2023-01-05T12:43:23;100592.44;;;0.37;100.00
24825;BME280;12910;57.690;11.974;2023-01-05T12:49:20;100606.53;;;0.48;100.00
24825;BME280;12910;57.690;11.974;2023-01-05T12:51:54;100615.91;;;0.51;100.00
24825;BME280;12910;57.690;11.974;2023-01-05T12:54:59;100622.25;;;0.44;100.00
24825;BME280;12910;57.690;11.974;2023-01-05T13:00:07;100630.00;;;0.47;100.00
24825;BME280;12910;57.690;11.974;2023-01-05T13:02:43;100628.69;;;0.39;100.00
24825;BME280;12910;57.690;11.974;2023-01-05T13:05:18;100643.75;;;0.37;100.00
24825;BME280;12910;57.690;11.974;2023-01-05T13:13:40;100659.81;;;0.54;100.00
24825;BME280;12910;57.690;11.974;2023-01-05T13:16:24;100669.91;;;0.54;100.00
24825;BME280;12910;57.690;11.974;2023-01-05T13:18:56;100667.91;;;0.49;100.00
24825;BME280;12910;57.690;11.974;2023-01-05T13:21:25;100676.34;;;0.49;100.00
24825;BME280;12910;57.690;11.974;2023-01-05T13:23:56;100674.34;;;0.58;100.00
24825;BME280;12910;57.690;11.974;2023-01-05T13:26:24;100684.88;;;0.51;100.00
24825;BME280;12910;57.690;11.974;2023-01-05T13:28:52;100684.25;;;0.55;100.00
24825;BME280;12910;57.690;11.974;2023-01-05T13:37:00;100702.88;;;0.57;100.00
24825;BME280;12910;57.690;11.974;2023-01-05T13:53:07;100720.78;;;0.62;100.00
24825;BME280;12910;57.690;11.974;2023-01-05T13:55:39;100733.34;;;0.60;100.00
24825;BME280;12910;57.690;11.974;2023-01-05T14:00:54;100731.41;;;0.56;100.00
24825;BME280;12910;57.690;11.974;2023-01-05T14:03:31;100746.72;;;0.59;100.00
24825;BME280;12910;57.690;11.974;2023-01-05T14:06:01;100755.34;;;0.63;100.00
24825;BME280;12910;57.690;11.974;2023-01-05T14:08:37;100756.03;;;0.60;100.00
24825;BME280;12910;57.690;11.974;2023-01-05T14:11:21;100760.47;;;0.65;100.00
24825;BME280;12910;57.690;11.974;2023-01-05T14:14:01;100756.03;;;0.60;100.00
24825;BME280;12910;57.690;11.974;2023-01-05T14:22:02;100783.84;;;0.62;100.00
24825;BME280;12910;57.690;11.974;2023-01-05T14:24:40;100783.94;;;0.64;100.00
24825;BME280;12910;57.690;11.974;2023-01-05T14:27:19;100791.56;;;0.50;100.00
24825;BME280;12910;57.690;11.974;2023-01-05T14:34:49;100811.47;;;0.45;100.00
24825;BME280;12910;57.690;11.974;2023-01-05T14:37:23;100812.81;;;0.54;100.00
24825;BME280;12910;57.690;11.974;2023-01-05T14:39:49;100807.94;;;0.57;100.00
24825;BME280;12910;57.690;11.974;2023-01-05T14:42:35;100827.16;;;0.55;100.00
24825;BME280;12910;57.690;11.974;2023-01-05T14:45:18;100832.47;;;0.59;100.00
24825;BME280;12910;57.690;11.974;2023-01-05T14:47:47;100840.81;;;0.58;100.00
24825;BME280;12910;57.690;11.974;2023-01-05T14:50:38;100839.16;;;0.59;100.00
24825;BME280;12910;57.690;11.974;2023-01-05T14:53:11;100845.28;;;0.63;100.00
24825;BME280;12910;57.690;11.974;2023-01-05T15:04:07;100854.47;;;0.62;100.00
24825;BME280;12910;57.690;11.974;2023-01-05T15:18:29;100879.84;;;0.50;100.00
24825;BME280;12910;57.690;11.974;2023-01-05T15:23:48;100901.84;;;0.53;100.00
24825;BME280;12910;57.690;11.974;2023-01-05T15:31:54;100910.78;;;0.48;100.00
24825;BME280;12910;57.690;11.974;2023-01-05T15:37:32;100920.88;;;0.48;100.00
24825;BME280;12910;57.690;11.974;2023-01-05T15:39:59;100920.19;;;0.37;100.00
24825;BME280;12910;57.690;11.974;2023-01-05T15:42:43;100917.25;;;0.44;100.00
24825;BME280;12910;57.690;11.974;2023-01-05T15:45:38;100916.88;;;0.51;100.00